Flight Track Log - Related Links

Times and Time Zones

All times are in EDT time to prevent confusion due to time zone crossing. See the SKW6492 flight status page for this flight to view local times or setup timezone preferences in your user account.

Time Position Orientation Groundspeed Altitude Reporting Facility
EDT Latitude Longitude Course Direction KTS MPH feet Rate Location/Type
Mon 09:39:10 PM 39.9500 -104.6833 348° North 225 259 8,100  Level Denver TRACON
Mon 09:40:00 PM 40.1650 -104.7711 347° North  Level FlightAware Approximate
Mon 09:40:10 PM 40.0167 -104.6667 11° North 284 327 9,600  Level Denver TRACON
Mon 09:41:00 PM 40.2708 -104.8029 347° North  Level FlightAware Approximate
Mon 09:41:10 PM 40.1167 -104.6833 353° North 318 366 11,400  Level Denver TRACON
Mon 09:42:00 PM 40.3763 -104.8365 346° North  Level FlightAware Approximate
Mon 09:42:04 PM 40.2000 -104.7000 351° North 306 352 13,300  Level Denver TRACON
Mon 09:43:00 PM 40.4815 -104.8716 346° North  Level FlightAware Approximate
Mon 09:43:04 PM 40.2833 -104.7333 343° North 401 461 15,300  Level Denver TRACON
Mon 09:44:00 PM 40.5873 -104.9035 348° North  Level FlightAware Approximate
Mon 09:44:04 PM 40.3833 -104.7500 353° North 342 394 17,200  Level Denver TRACON
Mon 09:44:19 PM 40.3961 -104.7569 338° Northwest 346 398 17,600 1,658 Climbing Denver Center
Mon 09:45:20 PM 40.5017 -104.7819 350° North 355 409 19,300 1,659 Climbing Denver Center
Mon 09:46:22 PM 40.6000 -104.8069 349° North 361 415 21,000 1,548 Climbing Denver Center
Mon 09:47:24 PM 40.7083 -104.8314 350° North 368 423 22,500 1,306 Climbing Denver Center
Mon 09:48:26 PM 40.7997 -104.8597 347° North 352 405 23,700 1,161 Climbing Denver Center
Mon 09:49:28 PM 40.8981 -104.9064 340° North 372 428 24,900 1,065 Climbing Denver Center
Mon 09:51:15 PM 41.0586 -105.0328 329° Northwest 366 421 26,700 919 Climbing Salt Lake Center
Mon 09:51:32 PM 41.0864 -105.0611 322° Northwest 380 437 26,800 684 Climbing Denver Center
Mon 09:52:34 PM 41.1661 -105.1456 321° Northwest 382 440 27,600 919 Climbing Denver Center
Mon 09:53:36 PM 41.2619 -105.2497 321° Northwest 395 455 28,700 1,161 Climbing Denver Center
Mon 09:54:38 PM 41.3394 -105.3328 321° Northwest 382 440 30,000 871 Climbing Denver Center
Mon 09:56:42 PM 41.5094 -105.5169 321° Northwest 382 440 31,400 645 Climbing Denver Center
Mon 09:57:44 PM 41.6008 -105.6189 320° Northwest 384 442 32,000 290 Climbing Denver Center
Mon 09:58:46 PM 41.6828 -105.7064 321° Northwest 391 450 32,000  Level Denver Center
Mon 09:59:48 PM 41.7822 -105.8164 320° Northwest 411 473 32,000  Level Denver Center
Mon 10:00:50 PM 41.8683 -105.9111 321° Northwest 416 479 32,000  Level Denver Center
Mon 10:01:52 PM 41.9575 -106.0081 321° Northwest 426 490 32,000  Level Denver Center
Mon 10:02:54 PM 42.0569 -106.1194 320° Northwest 418 481 32,000  Level Denver Center
Mon 10:03:56 PM 42.1397 -106.2139 320° Northwest 410 472 32,000  Level Denver Center
Mon 10:04:57 PM 42.2383 -106.3253 320° Northwest 412 474 32,000  Level Denver Center
Mon 10:05:59 PM 42.3231 -106.4189 321° Northwest 410 472 32,000  Level Denver Center
Mon 10:08:03 PM 42.5031 -106.6244 320° Northwest 407 468 32,000  Level Denver Center
Mon 10:09:05 PM 42.5867 -106.7183 320° Northwest 406 467 32,000  Level Denver Center
Mon 10:10:07 PM 42.6839 -106.8314 319° Northwest 411 473 32,000  Level Denver Center
Mon 10:11:08 PM 42.7692 -106.9267 321° Northwest 413 475 32,000  Level Denver Center
Mon 10:12:10 PM 42.8675 -107.0414 319° Northwest 415 478 32,000  Level Denver Center
Mon 10:13:12 PM 42.9539 -107.1394 320° Northwest 422 486 32,000  Level Denver Center
Mon 10:14:14 PM 43.0503 -107.2542 319° Northwest 424 488 32,000  Level Denver Center
Mon 10:15:15 PM 43.1353 -107.3522 320° Northwest 419 482 32,000  Level Denver Center
Mon 10:16:53 PM 43.2875 -107.5328 319° Northwest 413 475 32,000  Level Salt Lake Center
Mon 10:17:55 PM 43.3706 -107.6300 320° Northwest 409 471 32,000  Level Salt Lake Center
Mon 10:19:58 PM 43.5522 -107.8450 319° Northwest 414 476 32,000 -130 Level Salt Lake Center
Mon 10:20:59 PM 43.6369 -107.9456 319° Northwest 416 479 31,600 -1,854 Descending Salt Lake Center
Mon 10:22:01 PM 43.7372 -108.0681 319° Northwest 429 494 28,200 -3,048 Descending Salt Lake Center
Mon 10:23:03 PM 43.8214 -108.1689 319° Northwest 420 483 25,300 -2,732 Descending Salt Lake Center
Mon 10:24:04 PM 43.9042 -108.2692 319° Northwest 412 474 22,600 -2,732 Descending Salt Lake Center
Mon 10:25:06 PM 43.9964 -108.3828 318° Northwest 401 461 19,700 -2,634 Descending Salt Lake Center
Mon 10:26:07 PM 44.0747 -108.4781 319° Northwest 394 453 17,200 -2,459 Descending Salt Lake Center
Mon 10:27:08 PM 44.1483 -108.5675 319° Northwest 383 441 14,700 -2,683 Descending Salt Lake Center
Mon 10:28:10 PM 44.2283 -108.6661 319° Northwest 363 418 11,700 -1,524 Descending Salt Lake Center
Mon 10:30:13 PM 44.3633 -108.8306 319° Northwest 320 368 10,000 -554 Descending Salt Lake Center
Mon 10:31:14 PM 44.4167 -108.8756 329° Northwest 285 328 10,000 -341 Level Salt Lake Center
Mon 10:32:16 PM 44.4747 -108.8558 14° North 241 277 9,300 -878 Descending Salt Lake Center
Mon 10:33:17 PM 44.5353 -108.8186 24° Northeast 222 255 8,200 -780 Descending Salt Lake Center
Mon 10:34:19 PM 44.5831 -108.8606 328° Northwest 220 253 7,700 -780 Descending Salt Lake Center
Mon 10:35:20 PM 44.5728 -108.9367 259° West 206 237 6,600 -1,082 Descending Salt Lake Center

Login

Don't have an account? Register now (free) for customized features, flight alerts, and more!